Time;durP1;ratioP1;P1;durP2;ratioP2;P2;SDS_P1;SDS_P2;PMS_P1;PMS_P2;Temp;Humidity;BMP_temperature;BMP_pressure;BME280_temperature;BME280_humidity;BME280_pressure;Samples;Min_cycle;Max_cycle;Signal;HPM_P1;HPM_P2
2022/01/26 00:07:00;;;;;;;30.95;19.92;;;;;;;3.74;78.26;101713.41;10503158;28;20043;-63
2022/01/26 00:12:02;;;;;;;30.92;20.25;;;;;;;3.79;78.43;101711.50;10510373;27;20247;-63
2022/01/26 00:17:03;;;;;;;31.00;19.55;;;;;;;3.64;78.89;101704.91;10502863;28;20146;-63
2022/01/26 00:22:05;;;;;;;29.95;18.98;;;;;;;3.68;78.89;101708.31;10493910;28;20070;-63
2022/01/26 00:27:25;;;;;;;26.95;19.70;;;;;;;3.68;78.55;101697.78;10493376;28;20040;-63
2022/01/26 00:43:23;;;;;;;30.48;19.75;;;;;;;3.69;78.57;101710.03;10489195;28;20265;-63
2022/01/26 00:48:27;;;;;;;30.05;17.63;;;;;;;3.75;77.92;101704.59;10496014;28;20051;-63
2022/01/26 00:53:38;;;;;;;28.33;18.27;;;;;;;3.57;78.70;101708.59;10491936;28;20512;-63
2022/01/26 00:58:40;;;;;;;29.35;19.05;;;;;;;3.74;78.52;101718.69;10488572;28;20048;-63
2022/01/26 01:03:45;;;;;;;28.38;19.05;;;;;;;3.66;78.54;101715.38;10494943;28;20138;-64
2022/01/26 01:08:47;;;;;;;25.80;18.03;;;;;;;3.80;78.24;101710.59;10487180;28;20197;-63
2022/01/26 01:13:49;;;;;;;27.05;18.48;;;;;;;3.76;77.92;101716.84;10478255;28;20333;-63
2022/01/26 01:24:35;;;;;;;25.80;18.38;;;;;;;3.78;78.26;101725.56;10489100;28;20183;-64
2022/01/26 01:29:47;;;;;;;23.92;16.98;;;;;;;3.86;78.35;101726.22;10485187;28;20148;-63
2022/01/26 01:34:48;;;;;;;22.30;15.70;;;;;;;4.04;77.44;101726.59;10487717;28;20047;-62
2022/01/26 01:39:49;;;;;;;18.27;12.25;;;;;;;4.05;76.32;101725.69;10491332;28;20518;-62
2022/01/26 01:44:51;;;;;;;21.90;15.10;;;;;;;4.01;75.74;101713.53;10493465;28;21066;-62
2022/01/26 01:49:53;;;;;;;23.60;16.80;;;;;;;3.83;76.67;101728.09;10497965;28;20040;-63
2022/01/26 01:55:02;;;;;;;26.05;18.25;;;;;;;3.73;77.93;101727.47;10482429;28;20152;-64
2022/01/26 02:00:05;;;;;;;23.17;16.15;;;;;;;3.63;78.49;101720.75;10493491;28;20047;-62
2022/01/26 02:05:07;;;;;;;26.67;16.60;;;;;;;3.69;78.31;101731.09;10479771;28;20177;-63
2022/01/26 02:10:09;;;;;;;27.67;17.17;;;;;;;3.57;79.13;101727.03;10490696;28;20055;-63
2022/01/26 02:15:18;;;;;;;26.73;16.10;;;;;;;3.65;79.45;101734.75;10476169;28;20188;-64
2022/01/26 03:03:21;;;;;;;22.30;14.73;;;;;;;3.26;80.72;101688.41;10500221;28;20226;-66
2022/01/26 03:08:31;;;;;;;20.92;14.43;;;;;;;3.24;82.00;101702.50;10500899;28;20102;-62
2022/01/26 03:13:35;;;;;;;22.98;14.70;;;;;;;3.24;81.32;101694.59;10496333;28;20127;-63
2022/01/26 03:18:56;;;;;;;19.92;14.25;;;;;;;3.12;82.22;101701.06;10497587;28;20059;-62
2022/01/26 03:34:50;;;;;;;18.05;13.05;;;;;;;3.11;81.73;101696.72;10464047;28;20240;-63
2022/01/26 03:39:53;;;;;;;19.73;13.00;;;;;;;3.20;82.00;101680.69;10491518;28;20553;-63
2022/01/26 03:44:54;;;;;;;20.40;13.75;;;;;;;3.17;81.59;101697.41;10482365;28;20060;-63
2022/01/26 03:49:56;;;;;;;22.33;13.70;;;;;;;3.07;81.88;101690.66;10494597;28;20039;-63
2022/01/26 03:54:57;;;;;;;19.90;13.45;;;;;;;3.08;81.81;101697.66;10483688;28;20937;-63
2022/01/26 03:59:58;;;;;;;20.42;13.07;;;;;;;3.22;82.12;101683.25;10499026;28;20131;-63
2022/01/26 04:05:03;;;;;;;19.00;12.23;;;;;;;3.19;81.67;101684.22;10491694;28;20093;-63
2022/01/26 04:10:18;;;;;;;18.58;12.73;;;;;;;3.09;81.93;101686.22;10491726;28;20047;-63
2022/01/26 04:15:26;;;;;;;19.25;14.05;;;;;;;3.16;81.99;101700.94;10486322;27;20056;-63
2022/01/26 04:20:33;;;;;;;18.30;12.93;;;;;;;3.15;82.09;101693.97;10486061;28;20146;-63
2022/01/26 04:25:35;;;;;;;19.63;13.38;;;;;;;3.14;81.32;101686.97;10472503;28;20048;-64
2022/01/26 04:30:37;;;;;;;19.70;12.65;;;;;;;2.92;82.24;101677.91;10469698;28;20059;-64
2022/01/26 04:35:43;;;;;;;19.15;13.32;;;;;;;2.78;82.56;101673.00;10485518;28;20136;-64
2022/01/26 04:45:58;;;;;;;18.20;12.38;;;;;;;2.89;82.57;101651.69;10466956;22;20711;-55
2022/01/26 04:51:00;;;;;;;16.63;12.30;;;;;;;2.75;83.12;101646.78;10448600;28;20053;-56
2022/01/26 04:56:01;;;;;;;17.42;11.55;;;;;;;3.05;81.71;101655.63;10448175;28;20051;-55
2022/01/26 05:01:03;;;;;;;17.67;12.50;;;;;;;2.75;81.69;101637.13;10434236;28;20060;-55
2022/01/26 05:06:05;;;;;;;16.77;12.57;;;;;;;2.80;82.34;101664.16;10448596;28;20418;-55
2022/01/26 05:11:09;;;;;;;17.20;12.60;;;;;;;2.86;82.01;101675.44;10451249;28;20398;-55
2022/01/26 05:16:29;;;;;;;19.90;14.25;;;;;;;2.90;82.33;101656.03;10450079;28;20040;-55
2022/01/26 05:21:30;;;;;;;18.45;13.45;;;;;;;2.85;82.09;101643.00;10451507;28;20044;-57
2022/01/26 05:26:32;;;;;;;17.02;11.93;;;;;;;2.86;81.71;101649.13;10453528;28;20051;-57
2022/01/26 05:31:33;;;;;;;19.02;13.10;;;;;;;2.97;82.15;101637.44;10448620;28;20418;-54
2022/01/26 05:36:35;;;;;;;18.85;12.88;;;;;;;2.79;81.70;101619.47;10450359;28;20146;-55
2022/01/26 05:41:38;;;;;;;18.60;12.93;;;;;;;2.77;82.41;101619.53;10447204;28;20052;-56
2022/01/26 05:46:44;;;;;;;18.63;13.15;;;;;;;2.82;82.15;101627.28;10447137;28;20137;-55
2022/01/26 05:51:46;;;;;;;20.20;13.60;;;;;;;2.63;82.52;101613.78;10446500;28;20056;-56
2022/01/26 05:56:48;;;;;;;19.25;14.27;;;;;;;2.78;82.35;101621.25;10453731;28;20139;-57
2022/01/26 06:01:50;;;;;;;19.05;13.70;;;;;;;2.76;82.25;101649.38;10474819;28;20048;-61
2022/01/26 06:06:52;;;;;;;17.08;12.63;;;;;;;2.73;81.97;101649.47;10475436;28;20059;-56
2022/01/26 06:11:53;;;;;;;16.45;13.23;;;;;;;2.57;82.75;101650.75;10465988;28;20202;-55
2022/01/26 06:16:55;;;;;;;18.88;13.38;;;;;;;2.70;82.87;101644.25;10481662;28;20071;-55
2022/01/26 06:21:56;;;;;;;18.65;12.82;;;;;;;2.86;82.22;101655.25;10485144;28;20040;-57
2022/01/26 06:27:03;;;;;;;18.88;13.85;;;;;;;2.96;81.64;101664.63;10480020;28;20083;-55
2022/01/26 06:32:05;;;;;;;19.98;12.15;;;;;;;2.77;81.75;101664.22;10490243;28;20120;-57
2022/01/26 06:37:07;;;;;;;17.75;12.32;;;;;;;2.76;82.45;101686.19;10484670;28;20465;-57
2022/01/26 06:42:13;;;;;;;16.85;11.25;;;;;;;3.07;81.72;101700.31;10482729;28;20044;-56
2022/01/26 06:52:19;;;;;;;16.23;12.47;;;;;;;3.27;80.24;101715.56;10473244;28;20312;-56
2022/01/26 06:57:21;;;;;;;15.15;11.27;;;;;;;3.38;79.96;101720.53;10465224;28;20048;-55
2022/01/26 07:02:22;;;;;;;16.02;10.70;;;;;;;3.23;80.14;101732.34;10436223;28;20135;-55
2022/01/26 07:07:24;;;;;;;14.20;10.57;;;;;;;3.32;79.58;101732.97;10450432;28;20796;-58
2022/01/26 07:12:25;;;;;;;14.98;12.52;;;;;;;3.58;79.23;101738.44;10449312;28;20090;-58
2022/01/26 07:22:47;;;;;;;14.23;11.43;;;;;;;3.56;78.21;101716.53;10443460;28;20654;-56
2022/01/26 07:27:49;;;;;;;14.52;10.85;;;;;;;3.50;77.96;101710.56;10439730;28;20410;-56
2022/01/26 07:32:51;;;;;;;13.52;11.30;;;;;;;3.32;77.74;101701.41;10442719;28;20074;-55
2022/01/26 07:37:57;;;;;;;15.20;11.68;;;;;;;3.18;79.55;101698.25;10448495;28;20429;-56
2022/01/26 07:42:58;;;;;;;16.40;11.40;;;;;;;3.23;79.94;101696.38;10440664;28;20052;-56
2022/01/26 07:48:00;;;;;;;18.33;11.13;;;;;;;3.40;79.54;101677.50;10443944;28;20727;-56
2022/01/26 07:53:02;;;;;;;16.67;12.38;;;;;;;3.25;79.34;101678.78;10445135;28;20054;-56
2022/01/26 07:58:05;;;;;;;17.65;12.07;;;;;;;3.12;79.51;101674.75;10443165;28;20127;-55
2022/01/26 08:03:06;;;;;;;16.60;12.35;;;;;;;3.14;80.12;101692.22;10449879;28;20048;-56
2022/01/26 08:08:08;;;;;;;18.60;12.38;;;;;;;3.21;79.67;101669.22;10440365;28;20246;-56
2022/01/26 08:13:10;;;;;;;16.23;12.68;;;;;;;3.09;80.45;101667.81;10446887;28;20052;-55
2022/01/26 08:18:11;;;;;;;17.33;11.75;;;;;;;3.05;79.89;101676.69;10446113;28;20048;-57
2022/01/26 08:23:14;;;;;;;18.70;12.30;;;;;;;3.12;80.00;101709.84;10444044;28;20048;-55
2022/01/26 08:28:23;;;;;;;14.90;11.75;;;;;;;3.20;79.50;101691.19;10441653;28;20198;-56
2022/01/26 08:33:24;;;;;;;16.02;12.30;;;;;;;3.12;79.11;101657.22;10442772;28;20467;-57
2022/01/26 08:38:26;;;;;;;17.20;13.32;;;;;;;3.13;79.51;101685.22;10449809;28;20248;-56
2022/01/26 08:43:27;;;;;;;16.45;12.45;;;;;;;2.92;80.24;101646.34;10440056;28;20147;-55
2022/01/26 08:48:29;;;;;;;18.40;12.07;;;;;;;3.10;79.76;101695.84;10435500;28;20070;-55
2022/01/26 08:53:30;;;;;;;16.35;11.48;;;;;;;3.06;80.36;101688.06;10440282;28;20110;-56
2022/01/26 08:58:32;;;;;;;16.08;11.52;;;;;;;3.17;79.94;101680.75;10438639;28;20169;-56
2022/01/26 09:03:39;;;;;;;15.65;10.50;;;;;;;3.02;79.86;101660.97;10443475;28;20678;-56
2022/01/26 09:08:44;;;;;;;16.02;11.00;;;;;;;3.25;79.83;101683.19;10445988;28;20415;-62
2022/01/26 09:13:47;;;;;;;10.70;8.32;;;;;;;3.38;77.87;101676.69;10442769;28;20200;-55
2022/01/26 09:18:55;;;;;;;9.30;6.50;;;;;;;3.39;74.99;101686.28;10441571;28;20268;-56
2022/01/26 09:23:56;;;;;;;7.22;5.70;;;;;;;3.34;74.66;101712.72;10431160;28;20051;-57
2022/01/26 09:28:57;;;;;;;5.97;5.03;;;;;;;3.24;74.22;101739.34;10438697;28;20052;-56
2022/01/26 09:33:59;;;;;;;5.07;4.57;;;;;;;3.37;73.90;101730.22;10444084;28;20052;-58
2022/01/26 09:39:00;;;;;;;5.35;4.78;;;;;;;3.09;74.79;101728.34;10447164;28;20728;-57
2022/01/26 09:44:03;;;;;;;6.80;4.63;;;;;;;3.15;75.65;101746.59;10443879;28;20048;-55
2022/01/26 09:49:05;;;;;;;5.28;4.78;;;;;;;3.41;74.26;101726.59;10450188;28;20131;-55
2022/01/26 09:54:11;;;;;;;6.15;5.10;;;;;;;3.63;73.66;101733.91;10429549;28;20052;-54
2022/01/26 09:59:15;;;;;;;6.82;5.75;;;;;;;3.65;73.58;101740.88;10443685;28;20056;-54
2022/01/26 10:04:29;;;;;;;7.25;6.45;;;;;;;3.89;72.52;101739.31;10442912;28;20070;-56
2022/01/26 10:19:58;;;;;;;8.93;7.25;;;;;;;3.87;72.48;101730.59;10444598;28;20562;-55
2022/01/26 10:25:07;;;;;;;8.85;7.95;;;;;;;4.05;71.44;101715.13;10437685;28;20140;-54
2022/01/26 10:30:29;;;;;;;11.35;9.23;;;;;;;3.97;70.52;101739.09;10444129;28;20052;-55
2022/01/26 10:35:30;;;;;;;13.10;9.80;;;;;;;3.75;70.92;101730.91;10449453;28;20085;-56
2022/01/26 10:40:32;;;;;;;17.35;11.48;;;;;;;3.77;71.10;101717.72;10447293;28;20133;-56
2022/01/26 10:45:47;;;;;;;13.70;10.90;;;;;;;3.50;71.53;101721.09;10451655;28;20149;-56
2022/01/26 10:51:21;;;;;;;15.43;11.25;;;;;;;3.51;72.65;101725.47;10445412;28;20054;-55
2022/01/26 10:56:19;;;;;;;15.88;12.07;;;;;;;3.57;72.06;101716.50;10445882;28;20052;-54
2022/01/26 11:01:21;;;;;;;15.60;11.40;;;;;;;3.74;71.50;101713.41;10433193;28;20048;-55
2022/01/26 11:06:25;;;;;;;17.17;11.82;;;;;;;3.69;71.51;101710.91;10446546;28;20139;-57
2022/01/26 11:11:27;;;;;;;15.03;12.60;;;;;;;3.70;72.27;101717.03;10446151;28;20180;-54
2022/01/26 11:16:29;;;;;;;16.35;12.32;;;;;;;3.97;70.58;101720.63;10447064;28;20599;-55
2022/01/26 11:21:35;;;;;;;19.50;14.00;;;;;;;3.91;70.88;101709.44;10441938;28;20052;-55
2022/01/26 11:26:38;;;;;;;16.35;12.15;;;;;;;4.11;71.62;101707.03;10448051;28;20054;-56
2022/01/26 11:31:41;;;;;;;18.10;12.80;;;;;;;4.15;70.22;101699.94;10441582;28;21116;-54
2022/01/26 11:36:49;;;;;;;19.90;14.05;;;;;;;4.05;70.45;101686.16;10445014;28;20056;-56
2022/01/26 11:42:16;;;;;;;19.95;14.57;;;;;;;3.94;71.27;101686.47;10443096;28;20144;-62
2022/01/26 11:47:24;;;;;;;13.23;11.82;;;;;;;4.09;72.39;101702.75;10440006;28;20150;-56
2022/01/26 11:52:29;;;;;;;13.20;11.80;;;;;;;4.21;72.68;101724.31;10443733;28;20053;-55
2022/01/26 11:58:15;;;;;;;19.40;15.00;;;;;;;4.12;71.88;101724.59;10440502;28;20059;-56
2022/01/26 12:03:33;;;;;;;18.63;13.25;;;;;;;4.07;71.87;101701.00;10428957;28;20127;-56
2022/01/26 12:08:38;;;;;;;15.48;11.95;;;;;;;4.17;71.83;101709.50;10430206;28;20200;-56
2022/01/26 12:13:41;;;;;;;15.37;11.43;;;;;;;4.15;72.18;101727.13;10443736;28;20105;-57
2022/01/26 12:34:49;;;;;;;15.10;12.07;;;;;;;4.04;71.85;101700.25;10438097;28;20051;-56
2022/01/26 12:45:24;;;;;;;15.93;12.43;;;;;;;4.18;72.33;101729.66;10439791;28;20051;-56
2022/01/26 12:50:26;;;;;;;16.20;12.05;;;;;;;4.22;71.72;101725.19;10442310;28;20044;-55
2022/01/26 12:55:31;;;;;;;15.63;12.20;;;;;;;4.29;71.81;101710.03;10441978;28;20044;-56
2022/01/26 13:00:39;;;;;;;16.80;12.73;;;;;;;4.25;72.04;101711.91;10439455;28;20551;-56
2022/01/26 13:05:43;;;;;;;14.80;11.55;;;;;;;4.34;72.15;101716.00;10425523;28;20343;-56
2022/01/26 13:10:44;;;;;;;14.93;12.45;;;;;;;4.45;71.35;101721.84;10440562;28;20052;-54
2022/01/26 13:16:07;;;;;;;16.85;12.35;;;;;;;4.45;70.94;101711.28;10445245;28;20205;-56
2022/01/26 13:21:40;;;;;;;15.02;13.05;;;;;;;4.55;70.98;101723.28;10445168;28;20062;-56
2022/01/26 13:27:05;;;;;;;14.95;11.52;;;;;;;4.29;71.46;101734.63;10437042;28;20469;-56
2022/01/26 13:38:05;;;;;;;19.70;14.38;;;;;;;4.07;71.50;101705.44;10438489;28;20252;-56
2022/01/26 13:54:24;;;;;;;25.00;18.10;;;;;;;3.89;71.32;101676.06;10441528;28;20060;-55
2022/01/26 14:04:22;;;;;;;24.90;17.73;;;;;;;4.36;68.91;101666.75;10440974;28;20117;-56
2022/01/26 14:09:23;;;;;;;25.25;17.48;;;;;;;4.43;68.72;101669.16;10439913;28;20054;-55
2022/01/26 14:14:32;;;;;;;20.83;14.80;;;;;;;4.21;68.77;101660.19;10437413;28;20064;-55
2022/01/26 14:19:50;;;;;;;19.83;13.35;;;;;;;4.39;67.77;101669.28;10443044;28;20048;-55
2022/01/26 14:30:22;;;;;;;18.88;13.30;;;;;;;4.17;69.28;101669.09;10439427;28;20470;-54
2022/01/26 14:40:50;;;;;;;21.20;14.60;;;;;;;4.18;67.70;101660.28;10449198;28;20040;-56
2022/01/26 15:33:30;;;;;;;21.33;15.10;;;;;;;4.44;64.26;101646.25;10484519;28;20119;-55
2022/01/26 15:44:17;;;;;;;21.20;15.38;;;;;;;4.46;64.92;101633.03;10448814;28;20439;-56
2022/01/26 16:21:02;;;;;;;23.95;15.25;;;;;;;4.52;65.11;101677.66;10473578;28;20056;-56
2022/01/26 16:53:11;;;;;;;19.92;13.10;;;;;;;4.40;66.02;101673.66;10452037;28;20053;-63
2022/01/26 18:39:21;;;;;;;20.00;13.88;;;;;;;4.21;66.68;101634.69;10438070;28;20161;-63
2022/01/26 18:49:40;;;;;;;19.92;13.93;;;;;;;4.29;66.95;101663.44;10438785;28;20052;-62
2022/01/26 18:54:41;;;;;;;19.42;14.38;;;;;;;4.34;67.07;101676.47;10437200;28;20055;-62
2022/01/26 18:59:43;;;;;;;24.90;17.48;;;;;;;4.22;67.45;101661.94;10435872;28;20500;-63
2022/01/26 19:04:47;;;;;;;23.80;17.67;;;;;;;4.25;67.80;101664.47;10438830;28;20064;-63
2022/01/26 19:09:50;;;;;;;21.58;17.25;;;;;;;4.30;67.74;101664.31;10435432;28;20052;-63
2022/01/26 19:14:57;;;;;;;23.97;16.77;;;;;;;4.42;67.63;101658.66;10432114;28;20049;-64
2022/01/26 19:25:28;;;;;;;23.83;16.90;;;;;;;4.29;66.64;101620.41;10434661;28;20064;-63
2022/01/26 19:51:08;;;;;;;25.23;18.33;;;;;;;3.92;69.07;101611.91;10428187;28;20049;-60
2022/01/26 19:56:10;;;;;;;21.95;16.50;;;;;;;3.64;70.74;101625.91;10414810;28;20056;-61
2022/01/26 20:01:11;;;;;;;20.85;15.70;;;;;;;3.60;70.43;101610.22;10432351;28;20401;-61
2022/01/26 20:06:13;;;;;;;24.42;17.80;;;;;;;3.67;70.64;101622.31;10436833;28;20049;-60
2022/01/26 20:11:25;;;;;;;23.58;16.65;;;;;;;3.78;70.27;101625.47;10426036;28;20419;-60
2022/01/26 20:16:26;;;;;;;23.20;16.90;;;;;;;3.83;70.22;101631.47;10410775;28;20141;-61
2022/01/26 20:21:28;;;;;;;21.65;16.52;;;;;;;3.85;69.41;101620.91;10412216;28;20196;-60
2022/01/26 20:26:34;;;;;;;23.40;16.92;;;;;;;3.80;69.60;101626.31;10414117;28;20271;-63
2022/01/26 20:31:35;;;;;;;21.80;14.95;;;;;;;3.66;69.51;101607.41;10428543;28;20462;-61
2022/01/26 20:36:37;;;;;;;21.40;17.38;;;;;;;3.74;68.43;101623.88;10433465;28;20057;-60
2022/01/26 20:41:38;;;;;;;20.02;14.68;;;;;;;3.65;68.94;101624.16;10429750;28;20056;-60
2022/01/26 20:46:40;;;;;;;21.17;15.68;;;;;;;3.57;68.59;101594.53;10433017;28;20049;-62
2022/01/26 20:51:41;;;;;;;18.48;13.75;;;;;;;3.58;68.66;101606.78;10429164;28;20121;-61
2022/01/26 20:56:43;;;;;;;19.23;14.95;;;;;;;3.69;67.95;101609.94;10430728;28;20299;-62
2022/01/26 21:01:44;;;;;;;18.58;14.20;;;;;;;3.65;68.53;101603.94;10429473;28;20416;-61
2022/01/26 21:06:46;;;;;;;19.48;14.68;;;;;;;3.64;67.89;101582.91;10432520;28;20483;-62
2022/01/26 21:11:47;;;;;;;17.02;12.88;;;;;;;3.65;67.72;101603.06;10431517;28;20535;-62
2022/01/26 21:16:49;;;;;;;17.85;14.15;;;;;;;3.68;67.32;101611.72;10440312;28;20144;-62
2022/01/26 21:21:50;;;;;;;18.15;13.70;;;;;;;3.62;67.26;101598.75;10463698;22;20041;-69
2022/01/26 21:27:11;;;;;;;18.40;13.68;;;;;;;3.48;67.98;101598.28;10439545;28;20107;-71
2022/01/26 21:32:13;;;;;;;17.90;14.25;;;;;;;3.47;68.04;101594.81;10405357;28;20144;-70
2022/01/26 21:37:14;;;;;;;20.02;13.80;;;;;;;3.53;67.96;101578.81;10402853;28;20229;-70
2022/01/26 21:42:17;;;;;;;18.45;14.98;;;;;;;3.46;67.69;101579.06;10396804;28;20067;-70
2022/01/26 21:47:19;;;;;;;19.30;14.32;;;;;;;3.36;68.32;101581.06;10388913;28;20412;-70
2022/01/26 21:52:23;;;;;;;17.33;14.27;;;;;;;3.49;68.32;101582.44;10377397;28;20115;-69
2022/01/26 21:57:25;;;;;;;18.70;13.30;;;;;;;3.50;67.95;101578.06;10407581;28;20149;-68
2022/01/26 22:02:26;;;;;;;18.45;13.38;;;;;;;3.56;67.23;101587.53;10388122;28;20547;-70
2022/01/26 22:07:28;;;;;;;17.77;13.95;;;;;;;3.36;67.77;101586.34;10389936;28;20060;-71
2022/01/26 22:12:29;;;;;;;19.23;13.68;;;;;;;3.31;68.00;101578.59;10405694;28;20556;-70
2022/01/26 22:17:31;;;;;;;17.52;13.48;;;;;;;3.12;68.45;101569.50;10389275;28;20065;-70
2022/01/26 22:22:32;;;;;;;18.23;13.48;;;;;;;3.12;68.79;101572.13;10383656;28;20135;-70
2022/01/26 22:27:39;;;;;;;18.27;14.27;;;;;;;3.22;68.36;101567.47;10403978;28;20053;-69
2022/01/26 22:32:40;;;;;;;18.92;14.10;;;;;;;3.30;68.01;101555.81;10394968;28;20041;-71
2022/01/26 22:37:44;;;;;;;18.08;14.65;;;;;;;3.00;68.84;101547.03;10411143;28;20049;-71
2022/01/26 22:42:45;;;;;;;20.92;15.35;;;;;;;2.86;69.30;101539.53;10419895;28;20049;-71
2022/01/26 22:47:47;;;;;;;18.65;14.73;;;;;;;2.71;70.00;101543.44;10408714;28;20069;-71
2022/01/26 22:52:49;;;;;;;18.92;14.65;;;;;;;2.81;69.81;101533.53;10420703;28;20133;-71
2022/01/26 22:57:51;;;;;;;20.85;15.73;;;;;;;2.81;69.51;101531.75;10411994;28;20136;-71
2022/01/26 23:02:52;;;;;;;20.67;15.48;;;;;;;2.62;70.16;101530.53;10384582;28;20045;-70
2022/01/26 23:08:14;;;;;;;20.85;15.18;;;;;;;2.58;70.40;101528.88;10391624;28;20045;-68
2022/01/26 23:13:15;;;;;;;22.75;16.20;;;;;;;2.62;70.32;101547.16;10387894;28;20084;-69
2022/01/26 23:18:16;;;;;;;22.77;16.05;;;;;;;2.79;69.68;101559.88;10381610;28;20127;-70
2022/01/26 23:23:18;;;;;;;22.30;17.27;;;;;;;2.78;69.84;101568.66;10394263;28;20048;-71
2022/01/26 23:57:16;;;;;;;19.42;15.27;;;;;;;2.92;69.60;101533.25;10405875;28;20040;-70
